Morena (449) Station Data

Red Flag Warning: Yes
Fire Weather Zone: 258
SDGE Region: Mountain Empire
Lat/Lon: 32.688/-116.512

Observations

Time Wind Speed/Gust Temp(F) RH Fuel Moist Fuel Temp(F) Dewpt(F) Tmax(F) Tmin(F) Accum Precip 10-min Precip SL Press(mb)
6/27 5:00pm 271 9 G 18 89° 10% - - 25° 93.4° 60.2° - - -
6/27 4:50pm 278 7 G 17 90° 9% - - 23° 93.4° 60.2° - - -
6/27 4:40pm 280 7 G 14 90° 10% - - 25° 93.4° 60.2° - - -
6/27 4:30pm 269 10 G 20 89° 10% - - 26° 93.4° 60.2° - - -
6/27 4:20pm 276 9 G 16 90° 10% - - 25° 93.4° 60.2° - - -
6/27 4:10pm 264 9 G 20 90° 10% - - 25° 93.4° 60.2° - - -
6/27 4:00pm 271 8 G 17 90° 10% - - 27° 93.4° 60.2° - - -
6/27 3:50pm 263 9 G 18 90° 11% - - 27° 93.4° 60.2° - - -
6/27 3:40pm 263 10 G 20 90° 11% - - 28° 93.4° 60.2° - - -
6/27 3:30pm 260 11 G 21 90° 10% - - 27° 93.4° 60.2° - - -
6/27 3:20pm 269 9 G 20 91° 10% - - 27° 93.4° 60.2° - - -
6/27 3:10pm 256 11 G 17 90° 10% - - 26° 93.4° 60.2° - - -
6/27 3:00pm 253 12 G 22 90° 9% - - 25° 93.4° 60.2° - - -
6/27 2:50pm 252 12 G 20 91° 9% - - 25° 93.4° 60.2° - - -
6/27 2:40pm 260 11 G 21 91° 9% - - 25° 93.4° 60.2° - - -
6/27 2:30pm 267 9 G 19 92° 10% - - 27° 93.4° 60.2° - - -
6/27 2:20pm 267 10 G 18 92° 10% - - 27° 93.4° 60.2° - - -
6/27 2:10pm 264 9 G 19 92° 10% - - 27° 93.4° 60.2° - - -
6/27 2:00pm 282 7 G 15 93° 8% - - 24° 93.1° 60.2° - - -
6/27 1:50pm 273 9 G 16 91° 9% - - 23° 93.1° 60.2° - - -
6/27 1:40pm 276 9 G 17 92° 8% - - 23° 93.1° 60.2° - - -
6/27 1:30pm 281 9 G 17 92° 7% - - 20° 93.1° 60.2° - - -
6/27 1:20pm 266 10 G 20 91° 8% - - 20° 93.1° 60.2° - - -
6/27 1:10pm 268 10 G 19 92° 8% - - 21° 93.1° 60.2° - - -
6/27 1:00pm 264 10 G 20 91° 8% - - 21° 93.1° 60.2° - - -
6/27 12:50pm 268 10 G 20 92° 8% - - 21° 93.1° 60.2° - - -
6/27 12:40pm 260 9 G 19 92° 7% - - 20° 92.5° 60.2° - - -
6/27 12:30pm 275 8 G 19 92° 8% - - 22° 92.5° 60.2° - - -
6/27 12:20pm 281 7 G 12 92° 8% - - 22° 92.5° 60.2° - - -
6/27 12:10pm 270 9 G 15 91° 8% - - 21° 91.7° 60.2° - - -
6/27 12:00pm 279 7 G 15 91° 8% - - 21° 91.5° 60.2° - - -
6/27 11:50am 279 8 G 19 90° 8% - - 20° 91.4° 60.2° - - -
6/27 11:40am 274 8 G 16 90° 8% - - 21° 91.2° 60.2° - - -
6/27 11:30am 270 9 G 20 90° 8% - - 21° 90.6° 60.2° - - -
6/27 11:20am 281 7 G 16 90° 8% - - 21° 90.3° 60.2° - - -
6/27 11:10am 273 8 G 16 89° 8% - - 21° 89.9° 60.2° - - -
6/27 11:00am 263 8 G 16 89° 8% - - 21° 89.9° 60.2° - - -
6/27 10:50am 264 9 G 18 88° 9% - - 21° 89.3° 60.2° - - -
6/27 10:40am 266 7 G 15 88° 9% - - 22° 89.3° 60.2° - - -
6/27 10:30am 259 8 G 15 87° 9% - - 22° 87.7° 60.2° - - -
6/27 10:20am 256 9 G 15 87° 9% - - 20° 87.2° 60.2° - - -
6/27 10:10am 263 8 G 14 87° 9% - - 21° 87.2° 60.2° - - -
6/27 10:00am 271 6 G 12 87° 9% - - 22° 87.2° 60.2° - - -
6/27 9:50am 265 10 G 18 86° 9% - - 20° 86.6° 60.2° - - -
6/27 9:40am 263 8 G 15 86° 10% - - 22° 86.6° 60.2° - - -
6/27 9:30am 280 6 G 12 86° 10% - - 22° 86.6° 60.2° - - -
6/27 9:20am 271 8 G 15 86° 9% - - 21° 86.6° 60.2° - - -
6/27 9:10am 278 6 G 12 86° 9% - - 21° 86.6° 60.2° - - -
6/27 9:00am 277 5 G 9 86° 9% - - 21° 86.4° 60.2° - - -
6/27 8:50am 295 3 G 8 85° 10% - - 23° 86.4° 60.2° - - -
6/27 8:40am 319 3 G 6 84° 11% - - 25° 84.7° 60.2° - - -
6/27 8:30am 326 3 G 7 83° 14% - - 28° 83.6° 60.2° - - -
6/27 8:20am 321 2 G 5 81° 15% - - 29° 81.9° 60.2° - - -
6/27 8:10am 306 2 G 5 80° 15% - - 27° 80.2° 60.2° - - -
6/27 8:00am 300 2 G 4 79° 14% - - 26° 79.6° 60.2° - - -
6/27 7:40am 82 1 G 1 78° 16% - - 28° 78.8° 60.2° - - -
6/27 7:30am 83 0 G 1 77° 15% - - 26° 77.5° 60.2° - - -
6/27 7:20am 62 0 G 1 75° 17% - - 27° 76.4° 60.2° - - -
6/27 7:10am 44 2 G 3 73° 16% - - 24° 74.6° 60.2° - - -
6/27 7:00am 70 1 G 2 70° 20% - - 27° 74.6° 60.2° - - -
6/27 6:50am 104 2 G 2 67° 22% - - 27° 74.6° 60.2° - - -
6/27 6:40am 138 1 G 2 65° 23% - - 27° 74.6° 60.2° - - -
6/27 6:30am 103 2 G 2 64° 23% - - 25° 74.6° 60.2° - - -
6/27 6:20am 103 2 G 3 64° 21% - - 23° 74.6° 60.2° - - -
6/27 6:10am 124 3 G 4 61° 23% - - 24° 74.6° 60.2° - - -
6/27 6:00am 115 3 G 3 61° 24% - - 23° 74.6° 60.2° - - -
6/27 5:50am 108 3 G 4 62° 22% - - 23° 74.6° 61° - - -
6/27 5:40am 135 3 G 3 62° 22% - - 23° 74.6° 61° - - -
6/27 5:30am 137 3 G 4 63° 21% - - 22° 74.6° 61.2° - - -
6/27 5:20am 133 3 G 3 63° 21% - - 23° 74.6° 61.2° - - -
6/27 5:10am 131 3 G 4 63° 22% - - 23° 74.6° 61.2° - - -
6/27 5:00am 142 3 G 4 64° 20% - - 23° 74.6° 62.3° - - -
6/27 4:50am 137 3 G 4 66° 19% - - 22° 74.6° 62.3° - - -
6/27 4:40am 142 4 G 4 64° 20% - - 23° 74.6° 62.3° - - -
6/27 4:30am 125 3 G 4 63° 21% - - 23° 74.6° 62.3° - - -
6/27 4:20am 127 2 G 4 63° 21% - - 23° 74.6° 62.6° - - -
6/27 4:10am 148 1 G 3 65° 19% - - 22° 74.6° 63.5° - - -
6/27 4:00am 144 3 G 5 65° 19% - - 22° 74.6° 63.5° - - -
6/27 3:50am 132 4 G 5 66° 18% - - 21° 74.6° 63.5° - - -
6/27 3:40am 119 3 G 4 65° 18% - - 21° 74.6° 63.5° - - -
6/27 3:30am 130 4 G 5 65° 18% - - 21° 74.6° 63.5° - - -
6/27 3:20am 143 3 G 4 67° 16% - - 20° 74.6° 65.9° - - -
6/27 3:10am 137 2 G 4 67° 16% - - 19° 74.6° 65.9° - - -
6/27 3:00am 108 2 G 3 68° 15% - - 18° 74.6° 65.9° - - -
6/27 2:50am 62 3 G 5 69° 14% - - 18° 74.6° 65.9° - - -
6/27 2:40am 77 3 G 5 67° 15% - - 18° 74.6° 65.9° - - -
6/27 2:30am 115 2 G 4 67° 15% - - 18° 74.6° 66.1° - - -
6/27 2:20am 66 3 G 5 71° 12% - - 17° 74.6° 68.2° - - -
6/27 2:10am 55 4 G 5 72° 12% - - 16° 74.6° 68.2° - - -
6/27 2:00am 68 3 G 4 70° 12% - - 15° 74.6° 68.2° - - -
6/27 1:50am 95 2 G 4 69° 12% - - 15° 74.6° 68.2° - - -
6/27 1:40am 74 2 G 3 70° 12% - - 15° 74.6° 68.6° - - -
6/27 1:30am 73 2 G 4 69° 12% - - 15° 74.6° 68.7° - - -
6/27 1:20am 62 4 G 6 70° 12% - - 15° 74.6° 69.6° - - -
6/27 1:10am 68 2 G 5 72° 11% - - 15° 74.6° 69.6° - - -
6/27 1:00am 111 2 G 4 71° 12% - - 16° 74.6° 69.6° - - -
6/27 12:50am 106 2 G 4 72° 12% - - 16° 74.6° 69.6° - - -
6/27 12:40am 136 2 G 4 71° 13% - - 17° 74.6° 69.6° - - -
6/27 12:30am 58 2 G 3 74° 12% - - 17° 74.6° 71.3° - - -
6/27 12:20am 3 2 G 4 74° 13% - - 20° 74.6° 71.3° - - -
6/27 12:10am 323 1 G 4 72° 15% - - 23° 73.5° 71.3° - - -
6/27 12:00am 337 1 G 2 71° 14% - - 19° 99.8° 63° - - -
6/26 11:50pm 122 2 G 3 71° 13% - - 17° 99.8° 63° - - -
6/26 11:40pm 130 2 G 3 73° 12% - - 17° 99.8° 63° - - -
6/26 11:30pm 150 3 G 5 74° 11% - - 17° 99.8° 63° - - -
6/26 11:20pm 111 3 G 4 76° 11% - - 16° 99.8° 63° - - -
6/26 11:10pm 82 3 G 6 77° 10% - - 16° 99.8° 63° - - -
6/26 11:00pm 77 4 G 7 77° 10% - - 16° 99.8° 63° - - -
6/26 10:50pm 123 3 G 5 76° 10% - - 16° 99.8° 63° - - -
6/26 10:40pm 108 2 G 6 79° 9% - - 16° 99.8° 63° - - -
6/26 10:30pm 272 5 G 16 80° 9% - - 15° 99.8° 63° - - -
6/26 10:20pm 273 7 G 11 81° 9% - - 16° 99.8° 63° - - -
6/26 10:10pm 273 7 G 12 81° 8% - - 15° 99.8° 63° - - -
6/26 10:00pm 279 2 G 10 76° 11% - - 18° 99.8° 63° - - -
6/26 9:50pm 97 1 G 5 74° 14% - - 21° 99.8° 63° - - -
6/26 9:40pm 128 2 G 3 73° 15% - - 23° 99.8° 63° - - -
6/26 9:30pm 117 2 G 3 74° 16% - - 24° 99.8° 63° - - -
6/26 9:20pm 130 1 G 3 74° 17% - - 27° 99.8° 63° - - -
6/26 9:10pm 89 1 G 4 75° 17% - - 27° 99.8° 63° - - -
6/26 9:00pm 47 1 G 3 77° 16% - - 27° 99.8° 63° - - -
6/26 8:50pm 7 1 G 4 78° 16% - - 27° 99.8° 63° - - -
6/26 8:40pm 355 1 G 4 79° 14% - - 26° 99.8° 63° - - -
6/26 8:30pm 11 3 G 6 80° 14% - - 26° 99.8° 63° - - -
6/26 8:20pm 346 1 G 4 80° 15% - - 28° 99.8° 63° - - -
6/26 8:10pm 346 1 G 4 82° 13% - - 27° 99.8° 63° - - -
6/26 8:00pm 293 3 G 9 83° 12% - - 26° 99.8° 63° - - -
6/26 7:50pm 286 5 G 10 84° 12% - - 26° 99.8° 63° - - -
6/26 7:40pm 282 5 G 10 85° 12% - - 27° 99.8° 63° - - -
6/26 7:30pm 284 5 G 13 86° 12% - - 27° 99.8° 63° - - -
6/26 7:20pm 287 5 G 11 87° 13% - - 29° 99.8° 63° - - -
6/26 7:10pm 288 5 G 13 88° 12% - - 29° 99.8° 63° - - -
6/26 7:00pm 292 5 G 10 89° 11% - - 28° 99.8° 63° - - -
6/26 6:50pm 296 5 G 16 89° 11% - - 28° 99.8° 63° - - -
6/26 6:40pm 293 6 G 11 90° 10% - - 27° 99.8° 63° - - -
6/26 6:30pm 292 6 G 12 91° 11% - - 28° 99.8° 63° - - -
6/26 6:20pm 289 6 G 13 91° 10% - - 28° 99.8° 63° - - -
6/26 6:10pm 290 6 G 13 92° 10% - - 28° 99.8° 63° - - -
6/26 6:00pm 291 4 G 12 93° 10% - - 29° 99.8° 63° - - -
6/26 5:50pm 301 5 G 11 93° 9% - - 27° 99.8° 63° - - -
6/26 5:40pm 299 5 G 10 94° 10% - - 29° 99.8° 63° - - -
6/26 5:30pm 301 6 G 14 94° 9% - - 28° 99.8° 63° - - -
6/26 5:20pm 294 5 G 12 95° 9% - - 28° 99.8° 63° - - -
6/26 5:10pm 294 6 G 15 95° 10% - - 30° 99.8° 63° - - -
6/26 5:00pm 295 7 G 17 95° 9% - - 27° 99.8° 63° - - -
6/26 4:50pm 300 5 G 12 96° 10% - - 30° 99.8° 63° - - -
6/26 4:40pm 297 5 G 12 96° 10% - - 30° 99.8° 63° - - -
6/26 4:30pm 296 6 G 18 96° 9% - - 29° 99.8° 63° - - -
6/26 4:20pm 300 6 G 13 96° 10% - - 30° 99.8° 63° - - -
6/26 4:10pm 302 6 G 12 96° 9% - - 28° 99.8° 63° - - -
6/26 4:00pm 310 5 G 13 97° 10% - - 30° 99.8° 63° - - -
6/26 3:50pm 292 6 G 18 97° 10% - - 31° 99.8° 63° - - -
6/26 3:40pm 285 7 G 18 97° 10% - - 32° 99.8° 63° - - -
6/26 3:30pm 293 6 G 15 98° 10% - - 33° 99.8° 63° - - -
6/26 3:20pm 294 6 G 18 97° 10% - - 32° 99.8° 63° - - -
6/26 3:10pm 280 9 G 18 97° 10% - - 31° 99.8° 63° - - -
6/26 3:00pm 287 7 G 15 98° 10% - - 31° 99.8° 63° - - -
6/26 2:50pm 283 7 G 16 98° 10% - - 32° 99.8° 63° - - -
6/26 2:40pm 284 8 G 20 98° 10% - - 31° 99.8° 63° - - -
6/26 2:30pm 279 9 G 19 97° 10% - - 33° 99.8° 63° - - -
6/26 2:20pm 285 7 G 17 97° 11% - - 34° 99.8° 63° - - -
6/26 2:10pm 272 10 G 20 97° 10% - - 32° 99.8° 63° - - -
6/26 2:00pm 291 6 G 17 99° 10% - - 33° 99.8° 63° - - -
6/26 1:50pm 279 8 G 19 98° 10% - - 31° 99.5° 63° - - -
6/26 1:40pm 291 6 G 19 99° 9% - - 31° 99.5° 63° - - -
6/26 1:30pm 292 6 G 12 99° 9% - - 31° 99.2° 63° - - -
6/26 1:20pm 301 6 G 15 98° 9% - - 30° 99° 63° - - -
6/26 1:10pm 322 5 G 13 98° 9% - - 30° 99° 63° - - -
6/26 1:00pm 301 5 G 11 97° 9% - - 30° 98.6° 63° - - -
6/26 12:50pm 301 4 G 12 96° 9% - - 29° 97.2° 63° - - -
6/26 12:40pm 308 4 G 14 95° 9% - - 28° 97.2° 63° - - -
6/26 12:30pm 324 4 G 11 95° 9% - - 28° 97.2° 63° - - -
6/26 12:20pm 325 5 G 11 96° 9% - - 28° 97.2° 63° - - -
6/26 12:10pm 327 5 G 13 96° 9% - - 28° 97.2° 63° - - -
6/26 12:00pm 331 5 G 13 96° 9% - - 28° 96.6° 63° - - -
6/26 11:50am 320 5 G 14 96° 9% - - 27° 96.3° 63° - - -
6/26 11:40am 318 6 G 11 95° 9% - - 28° 96.2° 63° - - -
6/26 11:30am 304 5 G 11 95° 9% - - 27° 95.8° 63° - - -
6/26 11:20am 296 5 G 11 95° 9% - - 27° 95.6° 63° - - -
6/26 11:10am 319 6 G 12 95° 9% - - 27° 95.6° 63° - - -
6/26 11:00am 309 5 G 11 95° 9% - - 27° 95.6° 63° - - -
6/26 10:50am 302 5 G 11 94° 9% - - 26° 95.5° 63° - - -
6/26 10:40am 306 5 G 13 94° 9% - - 27° 95.5° 63° - - -
6/26 10:30am 305 5 G 11 95° 9% - - 27° 95.5° 63° - - -
6/26 10:20am 293 5 G 11 95° 9% - - 27° 95.4° 63° - - -
6/26 10:10am 313 5 G 12 94° 9% - - 27° 94.7° 63° - - -
6/26 10:00am 305 5 G 9 94° 10% - - 28° 94.3° 63° - - -
6/26 9:50am 312 4 G 13 94° 10% - - 28° 94.3° 63° - - -
6/26 9:40am 305 4 G 11 94° 10% - - 29° 94.3° 63° - - -
6/26 9:30am 312 4 G 9 93° 11% - - 30° 93.2° 63° - - -
6/26 9:20am 323 3 G 8 91° 12% - - 32° 92.3° 63° - - -
6/26 9:10am 311 2 G 7 90° 14% - - 35° 90.3° 63° - - -
6/26 9:00am 127 1 G 2 88° 16% - - 36° 89.2° 63° - - -
6/26 8:50am 80 0 G 2 87° 16% - - 35° 88.1° 63° - - -
6/26 8:40am 257 0 G 2 84° 21% - - 39° 85.4° 63° - - -
6/26 8:30am 245 1 G 2 82° 29% - - 46° 84.9° 63° - - -
6/26 8:20am 259 1 G 3 81° 29% - - 46° 84.9° 63° - - -
6/26 8:10am 252 1 G 3 78° 31% - - 45° 84.9° 63° - - -
6/26 8:00am 244 1 G 4 79° 32% - - 47° 84.9° 63° - - -
6/26 7:50am 198 1 G 3 79° 31% - - 46° 84.9° 63° - - -
6/26 7:40am 18 1 G 2 76° 33% - - 45° 84.9° 63° - - -
6/26 7:30am 94 2 G 5 73° 35% - - 44° 84.9° 63° - - -
6/26 7:20am 91 1 G 4 72° 32% - - 41° 84.9° 63° - - -
6/26 7:10am 179 1 G 3 70° 32% - - 39° 84.9° 63° - - -
6/26 7:00am 76 2 G 6 67° 35% - - 38° 84.9° 63° - - -
6/26 6:50am 111 2 G 4 67° 32% - - 37° 84.9° 63° - - -
6/26 6:40am 108 1 G 3 67° 31% - - 35° 84.9° 63° - - -
6/26 6:30am 102 1 G 3 66° 31% - - 34° 84.9° 63° - - -
6/26 6:20am 148 1 G 4 65° 31% - - 33° 84.9° 63° - - -
6/26 6:10am 108 1 G 3 65° 30% - - 32° 84.9° 63° - - -
6/26 6:00am 124 2 G 4 64° 30% - - 32° 84.9° 63° - - -